sensor_id;sensor_type;location;lat;lon;timestamp;P1;durP1;ratioP1;P2;durP2;ratioP2
23676;SDS011;31493;49.058;12.190;2023-09-30T00:00:18;38.75;;;15.23;;
23676;SDS011;31493;49.058;12.190;2023-09-30T00:02:45;34.03;;;16.38;;
23676;SDS011;31493;49.058;12.190;2023-09-30T00:05:13;40.25;;;16.55;;
23676;SDS011;31493;49.058;12.190;2023-09-30T00:07:40;37.22;;;15.65;;
23676;SDS011;31493;49.058;12.190;2023-09-30T00:10:09;39.47;;;15.90;;
23676;SDS011;31493;49.058;12.190;2023-09-30T00:12:36;34.42;;;15.02;;
23676;SDS011;31493;49.058;12.190;2023-09-30T00:15:03;36.83;;;15.75;;
23676;SDS011;31493;49.058;12.190;2023-09-30T00:17:31;34.47;;;14.55;;
23676;SDS011;31493;49.058;12.190;2023-09-30T00:19:58;34.95;;;14.38;;
23676;SDS011;31493;49.058;12.190;2023-09-30T00:22:25;30.95;;;13.85;;
23676;SDS011;31493;49.058;12.190;2023-09-30T00:24:52;31.55;;;13.80;;
23676;SDS011;31493;49.058;12.190;2023-09-30T00:27:21;29.85;;;13.05;;
23676;SDS011;31493;49.058;12.190;2023-09-30T00:29:48;33.55;;;13.90;;
23676;SDS011;31493;49.058;12.190;2023-09-30T00:32:15;28.70;;;13.25;;
23676;SDS011;31493;49.058;12.190;2023-09-30T00:34:42;30.45;;;13.63;;
23676;SDS011;31493;49.058;12.190;2023-09-30T00:37:10;28.40;;;13.30;;
23676;SDS011;31493;49.058;12.190;2023-09-30T00:39:37;29.05;;;12.60;;
23676;SDS011;31493;49.058;12.190;2023-09-30T00:42:04;30.73;;;12.93;;
23676;SDS011;31493;49.058;12.190;2023-09-30T00:44:33;29.45;;;12.82;;
23676;SDS011;31493;49.058;12.190;2023-09-30T00:47:00;30.13;;;13.38;;
23676;SDS011;31493;49.058;12.190;2023-09-30T00:49:27;35.70;;;12.70;;
23676;SDS011;31493;49.058;12.190;2023-09-30T00:51:55;30.50;;;12.07;;
23676;SDS011;31493;49.058;12.190;2023-09-30T00:54:23;25.15;;;11.73;;
23676;SDS011;31493;49.058;12.190;2023-09-30T00:56:53;29.35;;;11.68;;
23676;SDS011;31493;49.058;12.190;2023-09-30T00:59:23;26.40;;;12.00;;
23676;SDS011;31493;49.058;12.190;2023-09-30T01:01:53;32.90;;;12.45;;
23676;SDS011;31493;49.058;12.190;2023-09-30T01:04:23;26.77;;;12.02;;
23676;SDS011;31493;49.058;12.190;2023-09-30T01:06:51;25.85;;;11.48;;
23676;SDS011;31493;49.058;12.190;2023-09-30T01:09:18;28.60;;;12.30;;
23676;SDS011;31493;49.058;12.190;2023-09-30T01:11:46;25.25;;;11.40;;
23676;SDS011;31493;49.058;12.190;2023-09-30T01:14:26;29.83;;;13.00;;
23676;SDS011;31493;49.058;12.190;2023-09-30T01:16:55;26.33;;;11.80;;
23676;SDS011;31493;49.058;12.190;2023-09-30T01:19:23;27.92;;;11.60;;
23676;SDS011;31493;49.058;12.190;2023-09-30T01:21:53;28.98;;;12.25;;
23676;SDS011;31493;49.058;12.190;2023-09-30T01:24:24;33.75;;;11.95;;
23676;SDS011;31493;49.058;12.190;2023-09-30T01:26:51;23.13;;;10.98;;
23676;SDS011;31493;49.058;12.190;2023-09-30T01:29:18;24.70;;;10.38;;
23676;SDS011;31493;49.058;12.190;2023-09-30T01:31:45;27.02;;;11.48;;
23676;SDS011;31493;49.058;12.190;2023-09-30T01:34:13;25.60;;;11.38;;
23676;SDS011;31493;49.058;12.190;2023-09-30T01:36:41;23.17;;;11.05;;
23676;SDS011;31493;49.058;12.190;2023-09-30T01:39:09;22.55;;;10.57;;
23676;SDS011;31493;49.058;12.190;2023-09-30T01:41:37;22.95;;;10.38;;
23676;SDS011;31493;49.058;12.190;2023-09-30T01:44:05;21.48;;;9.63;;
23676;SDS011;31493;49.058;12.190;2023-09-30T01:46:32;21.83;;;9.88;;
23676;SDS011;31493;49.058;12.190;2023-09-30T01:48:59;21.88;;;10.48;;
23676;SDS011;31493;49.058;12.190;2023-09-30T01:51:26;23.50;;;10.00;;
23676;SDS011;31493;49.058;12.190;2023-09-30T01:53:54;24.60;;;9.73;;
23676;SDS011;31493;49.058;12.190;2023-09-30T01:56:22;25.50;;;10.35;;
23676;SDS011;31493;49.058;12.190;2023-09-30T01:58:49;22.85;;;10.15;;
23676;SDS011;31493;49.058;12.190;2023-09-30T02:01:17;22.92;;;9.90;;
23676;SDS011;31493;49.058;12.190;2023-09-30T02:03:44;22.30;;;9.05;;
23676;SDS011;31493;49.058;12.190;2023-09-30T02:06:11;21.35;;;9.00;;
23676;SDS011;31493;49.058;12.190;2023-09-30T02:08:38;19.95;;;8.93;;
23676;SDS011;31493;49.058;12.190;2023-09-30T02:11:05;21.88;;;9.05;;
23676;SDS011;31493;49.058;12.190;2023-09-30T02:13:34;20.65;;;8.80;;
23676;SDS011;31493;49.058;12.190;2023-09-30T02:16:01;24.00;;;8.95;;
23676;SDS011;31493;49.058;12.190;2023-09-30T02:18:27;21.38;;;8.43;;
23676;SDS011;31493;49.058;12.190;2023-09-30T02:20:54;21.10;;;8.90;;
23676;SDS011;31493;49.058;12.190;2023-09-30T02:23:21;23.98;;;9.35;;
23676;SDS011;31493;49.058;12.190;2023-09-30T02:25:49;19.48;;;8.98;;
23676;SDS011;31493;49.058;12.190;2023-09-30T02:28:16;19.90;;;7.97;;
23676;SDS011;31493;49.058;12.190;2023-09-30T02:30:45;21.13;;;8.10;;
23676;SDS011;31493;49.058;12.190;2023-09-30T02:33:12;23.70;;;9.00;;
23676;SDS011;31493;49.058;12.190;2023-09-30T02:35:43;19.73;;;8.25;;
23676;SDS011;31493;49.058;12.190;2023-09-30T02:38:11;21.50;;;9.07;;
23676;SDS011;31493;49.058;12.190;2023-09-30T02:40:38;20.45;;;8.15;;
23676;SDS011;31493;49.058;12.190;2023-09-30T02:43:06;21.27;;;9.07;;
23676;SDS011;31493;49.058;12.190;2023-09-30T02:45:33;21.65;;;8.80;;
23676;SDS011;31493;49.058;12.190;2023-09-30T02:48:01;19.20;;;8.35;;
23676;SDS011;31493;49.058;12.190;2023-09-30T02:50:28;19.38;;;8.50;;
23676;SDS011;31493;49.058;12.190;2023-09-30T02:52:55;22.75;;;8.18;;
23676;SDS011;31493;49.058;12.190;2023-09-30T02:55:23;18.42;;;8.32;;
23676;SDS011;31493;49.058;12.190;2023-09-30T02:57:50;18.38;;;7.85;;
23676;SDS011;31493;49.058;12.190;2023-09-30T03:00:18;20.67;;;8.02;;
23676;SDS011;31493;49.058;12.190;2023-09-30T03:02:49;18.98;;;8.48;;
23676;SDS011;31493;49.058;12.190;2023-09-30T03:05:19;17.45;;;7.95;;
23676;SDS011;31493;49.058;12.190;2023-09-30T03:07:46;19.63;;;7.63;;
23676;SDS011;31493;49.058;12.190;2023-09-30T03:10:16;20.52;;;8.02;;
23676;SDS011;31493;49.058;12.190;2023-09-30T03:12:46;18.88;;;8.20;;
23676;SDS011;31493;49.058;12.190;2023-09-30T03:15:13;16.90;;;7.57;;
23676;SDS011;31493;49.058;12.190;2023-09-30T03:17:41;18.23;;;8.02;;
23676;SDS011;31493;49.058;12.190;2023-09-30T03:20:08;19.55;;;7.43;;
23676;SDS011;31493;49.058;12.190;2023-09-30T03:22:39;19.08;;;7.78;;
23676;SDS011;31493;49.058;12.190;2023-09-30T03:25:08;18.90;;;7.80;;
23676;SDS011;31493;49.058;12.190;2023-09-30T03:27:37;17.17;;;7.47;;
23676;SDS011;31493;49.058;12.190;2023-09-30T03:30:04;17.27;;;7.63;;
23676;SDS011;31493;49.058;12.190;2023-09-30T03:32:32;18.08;;;7.80;;
23676;SDS011;31493;49.058;12.190;2023-09-30T03:34:59;17.98;;;7.28;;
23676;SDS011;31493;49.058;12.190;2023-09-30T03:37:27;18.58;;;7.88;;
23676;SDS011;31493;49.058;12.190;2023-09-30T03:39:56;22.23;;;8.10;;
23676;SDS011;31493;49.058;12.190;2023-09-30T03:42:23;18.25;;;7.55;;
23676;SDS011;31493;49.058;12.190;2023-09-30T03:44:50;18.20;;;7.85;;
23676;SDS011;31493;49.058;12.190;2023-09-30T03:47:18;17.88;;;7.78;;
23676;SDS011;31493;49.058;12.190;2023-09-30T03:49:45;19.17;;;8.00;;
23676;SDS011;31493;49.058;12.190;2023-09-30T03:52:13;19.20;;;7.83;;
23676;SDS011;31493;49.058;12.190;2023-09-30T03:54:41;20.92;;;8.38;;
23676;SDS011;31493;49.058;12.190;2023-09-30T03:57:09;19.02;;;8.32;;
23676;SDS011;31493;49.058;12.190;2023-09-30T03:59:38;20.30;;;7.57;;
23676;SDS011;31493;49.058;12.190;2023-09-30T04:02:05;19.38;;;7.35;;
23676;SDS011;31493;49.058;12.190;2023-09-30T04:04:33;19.20;;;7.45;;
23676;SDS011;31493;49.058;12.190;2023-09-30T04:07:02;18.45;;;8.27;;
23676;SDS011;31493;49.058;12.190;2023-09-30T04:09:31;16.55;;;7.40;;
23676;SDS011;31493;49.058;12.190;2023-09-30T04:11:58;15.20;;;7.00;;
23676;SDS011;31493;49.058;12.190;2023-09-30T04:14:27;20.60;;;7.35;;
23676;SDS011;31493;49.058;12.190;2023-09-30T04:16:54;19.98;;;7.85;;
23676;SDS011;31493;49.058;12.190;2023-09-30T04:19:21;20.05;;;8.13;;
23676;SDS011;31493;49.058;12.190;2023-09-30T04:21:48;21.80;;;8.25;;
23676;SDS011;31493;49.058;12.190;2023-09-30T04:24:16;20.67;;;8.75;;
23676;SDS011;31493;49.058;12.190;2023-09-30T04:26:44;19.58;;;9.48;;
23676;SDS011;31493;49.058;12.190;2023-09-30T04:29:11;21.23;;;8.98;;
23676;SDS011;31493;49.058;12.190;2023-09-30T04:31:41;24.50;;;9.23;;
23676;SDS011;31493;49.058;12.190;2023-09-30T04:34:09;21.55;;;9.18;;
23676;SDS011;31493;49.058;12.190;2023-09-30T04:36:36;24.33;;;9.65;;
23676;SDS011;31493;49.058;12.190;2023-09-30T04:39:03;22.00;;;9.75;;
23676;SDS011;31493;49.058;12.190;2023-09-30T04:41:31;25.88;;;10.13;;
23676;SDS011;31493;49.058;12.190;2023-09-30T04:43:58;22.35;;;10.18;;
23676;SDS011;31493;49.058;12.190;2023-09-30T04:46:26;24.20;;;10.30;;
23676;SDS011;31493;49.058;12.190;2023-09-30T04:48:54;23.58;;;10.38;;
23676;SDS011;31493;49.058;12.190;2023-09-30T04:51:21;27.27;;;10.18;;
23676;SDS011;31493;49.058;12.190;2023-09-30T04:53:51;26.83;;;10.20;;
23676;SDS011;31493;49.058;12.190;2023-09-30T04:56:18;26.27;;;10.00;;
23676;SDS011;31493;49.058;12.190;2023-09-30T04:58:45;24.83;;;10.15;;
23676;SDS011;31493;49.058;12.190;2023-09-30T05:01:12;24.77;;;10.20;;
23676;SDS011;31493;49.058;12.190;2023-09-30T05:03:39;22.98;;;10.52;;
23676;SDS011;31493;49.058;12.190;2023-09-30T05:06:08;25.85;;;9.82;;
23676;SDS011;31493;49.058;12.190;2023-09-30T05:08:35;24.92;;;10.15;;
23676;SDS011;31493;49.058;12.190;2023-09-30T05:11:02;24.83;;;9.63;;
23676;SDS011;31493;49.058;12.190;2023-09-30T05:13:30;25.30;;;10.15;;
23676;SDS011;31493;49.058;12.190;2023-09-30T05:18:26;22.63;;;9.93;;
23676;SDS011;31493;49.058;12.190;2023-09-30T05:20:54;23.48;;;10.02;;
23676;SDS011;31493;49.058;12.190;2023-09-30T05:23:22;22.38;;;9.32;;
23676;SDS011;31493;49.058;12.190;2023-09-30T05:28:16;22.70;;;9.57;;
23676;SDS011;31493;49.058;12.190;2023-09-30T05:30:44;22.90;;;9.65;;
23676;SDS011;31493;49.058;12.190;2023-09-30T05:33:11;23.35;;;9.73;;
23676;SDS011;31493;49.058;12.190;2023-09-30T05:35:40;22.83;;;9.63;;
23676;SDS011;31493;49.058;12.190;2023-09-30T05:38:07;21.38;;;8.90;;
23676;SDS011;31493;49.058;12.190;2023-09-30T05:40:37;26.07;;;9.93;;
23676;SDS011;31493;49.058;12.190;2023-09-30T05:43:04;23.55;;;9.43;;
23676;SDS011;31493;49.058;12.190;2023-09-30T05:45:32;25.02;;;9.50;;
23676;SDS011;31493;49.058;12.190;2023-09-30T05:48:01;23.40;;;9.27;;
23676;SDS011;31493;49.058;12.190;2023-09-30T05:50:32;20.05;;;8.63;;
23676;SDS011;31493;49.058;12.190;2023-09-30T05:55:26;20.45;;;8.73;;
23676;SDS011;31493;49.058;12.190;2023-09-30T05:57:56;22.57;;;9.63;;
23676;SDS011;31493;49.058;12.190;2023-09-30T06:00:24;22.67;;;9.52;;
23676;SDS011;31493;49.058;12.190;2023-09-30T06:02:56;23.77;;;8.82;;
23676;SDS011;31493;49.058;12.190;2023-09-30T06:05:23;24.05;;;8.93;;
23676;SDS011;31493;49.058;12.190;2023-09-30T06:07:52;21.65;;;9.13;;
23676;SDS011;31493;49.058;12.190;2023-09-30T06:10:19;21.92;;;9.05;;
23676;SDS011;31493;49.058;12.190;2023-09-30T06:12:46;21.90;;;8.30;;
23676;SDS011;31493;49.058;12.190;2023-09-30T06:15:16;17.58;;;8.27;;
23676;SDS011;31493;49.058;12.190;2023-09-30T06:17:56;22.08;;;8.57;;
23676;SDS011;31493;49.058;12.190;2023-09-30T06:20:30;21.52;;;8.52;;
23676;SDS011;31493;49.058;12.190;2023-09-30T06:22:57;19.65;;;7.85;;
23676;SDS011;31493;49.058;12.190;2023-09-30T06:25:24;17.67;;;7.85;;
23676;SDS011;31493;49.058;12.190;2023-09-30T06:30:22;20.07;;;8.13;;
23676;SDS011;31493;49.058;12.190;2023-09-30T06:32:55;18.42;;;7.85;;
23676;SDS011;31493;49.058;12.190;2023-09-30T06:35:22;16.70;;;7.32;;
23676;SDS011;31493;49.058;12.190;2023-09-30T06:37:49;20.38;;;7.85;;
23676;SDS011;31493;49.058;12.190;2023-09-30T06:40:16;19.92;;;8.00;;
23676;SDS011;31493;49.058;12.190;2023-09-30T06:42:44;19.98;;;7.97;;
23676;SDS011;31493;49.058;12.190;2023-09-30T06:45:11;14.88;;;7.32;;
23676;SDS011;31493;49.058;12.190;2023-09-30T06:47:40;17.48;;;7.75;;
23676;SDS011;31493;49.058;12.190;2023-09-30T06:50:08;18.20;;;7.32;;
23676;SDS011;31493;49.058;12.190;2023-09-30T06:52:38;16.95;;;7.78;;
23676;SDS011;31493;49.058;12.190;2023-09-30T06:55:11;15.73;;;7.28;;
23676;SDS011;31493;49.058;12.190;2023-09-30T06:57:40;15.90;;;7.25;;
23676;SDS011;31493;49.058;12.190;2023-09-30T07:00:08;18.67;;;7.63;;
23676;SDS011;31493;49.058;12.190;2023-09-30T07:02:37;18.15;;;7.70;;
23676;SDS011;31493;49.058;12.190;2023-09-30T07:05:06;16.58;;;7.50;;
23676;SDS011;31493;49.058;12.190;2023-09-30T07:07:34;14.63;;;6.53;;
23676;SDS011;31493;49.058;12.190;2023-09-30T07:10:01;16.88;;;7.32;;
23676;SDS011;31493;49.058;12.190;2023-09-30T07:12:29;15.15;;;7.25;;
23676;SDS011;31493;49.058;12.190;2023-09-30T07:14:57;17.60;;;7.43;;
23676;SDS011;31493;49.058;12.190;2023-09-30T07:17:24;16.52;;;6.57;;
23676;SDS011;31493;49.058;12.190;2023-09-30T07:19:52;14.20;;;6.45;;
23676;SDS011;31493;49.058;12.190;2023-09-30T07:22:20;16.13;;;6.43;;
23676;SDS011;31493;49.058;12.190;2023-09-30T07:24:48;17.60;;;7.03;;
23676;SDS011;31493;49.058;12.190;2023-09-30T07:27:15;13.77;;;5.53;;
23676;SDS011;31493;49.058;12.190;2023-09-30T07:29:43;12.68;;;5.43;;
23676;SDS011;31493;49.058;12.190;2023-09-30T07:32:10;19.02;;;6.45;;
23676;SDS011;31493;49.058;12.190;2023-09-30T07:34:37;12.40;;;5.45;;
23676;SDS011;31493;49.058;12.190;2023-09-30T07:37:04;9.32;;;4.85;;
23676;SDS011;31493;49.058;12.190;2023-09-30T07:39:32;13.25;;;5.93;;
23676;SDS011;31493;49.058;12.190;2023-09-30T07:42:00;11.50;;;4.80;;
23676;SDS011;31493;49.058;12.190;2023-09-30T07:44:27;12.88;;;5.32;;
23676;SDS011;31493;49.058;12.190;2023-09-30T07:46:55;12.35;;;5.57;;
23676;SDS011;31493;49.058;12.190;2023-09-30T07:49:22;14.77;;;5.68;;
23676;SDS011;31493;49.058;12.190;2023-09-30T07:51:49;10.90;;;4.95;;
23676;SDS011;31493;49.058;12.190;2023-09-30T07:54:16;9.98;;;4.55;;
23676;SDS011;31493;49.058;12.190;2023-09-30T07:56:45;9.65;;;5.10;;
23676;SDS011;31493;49.058;12.190;2023-09-30T07:59:12;12.02;;;5.13;;
23676;SDS011;31493;49.058;12.190;2023-09-30T08:01:39;11.98;;;4.57;;
23676;SDS011;31493;49.058;12.190;2023-09-30T08:04:07;7.40;;;4.05;;
23676;SDS011;31493;49.058;12.190;2023-09-30T08:06:34;7.00;;;3.45;;
23676;SDS011;31493;49.058;12.190;2023-09-30T08:09:01;7.53;;;3.10;;
23676;SDS011;31493;49.058;12.190;2023-09-30T08:11:28;6.88;;;2.97;;
23676;SDS011;31493;49.058;12.190;2023-09-30T08:13:59;4.72;;;2.90;;
23676;SDS011;31493;49.058;12.190;2023-09-30T08:16:32;6.40;;;2.50;;
23676;SDS011;31493;49.058;12.190;2023-09-30T08:18:59;4.13;;;2.00;;
23676;SDS011;31493;49.058;12.190;2023-09-30T08:21:26;5.18;;;2.33;;
23676;SDS011;31493;49.058;12.190;2023-09-30T08:23:53;4.45;;;2.03;;
23676;SDS011;31493;49.058;12.190;2023-09-30T08:26:20;3.92;;;1.98;;
23676;SDS011;31493;49.058;12.190;2023-09-30T08:28:47;2.80;;;1.75;;
23676;SDS011;31493;49.058;12.190;2023-09-30T08:31:16;3.25;;;1.90;;
23676;SDS011;31493;49.058;12.190;2023-09-30T08:33:43;2.88;;;1.55;;
23676;SDS011;31493;49.058;12.190;2023-09-30T08:36:11;1.38;;;1.02;;
23676;SDS011;31493;49.058;12.190;2023-09-30T08:38:41;2.75;;;1.10;;
23676;SDS011;31493;49.058;12.190;2023-09-30T08:41:09;2.47;;;1.17;;
23676;SDS011;31493;49.058;12.190;2023-09-30T08:43:37;1.70;;;1.23;;
23676;SDS011;31493;49.058;12.190;2023-09-30T08:46:05;3.67;;;1.00;;
23676;SDS011;31493;49.058;12.190;2023-09-30T08:48:34;1.17;;;0.70;;
23676;SDS011;31493;49.058;12.190;2023-09-30T08:51:02;2.63;;;0.60;;
23676;SDS011;31493;49.058;12.190;2023-09-30T08:53:29;1.30;;;0.60;;
23676;SDS011;31493;49.058;12.190;2023-09-30T08:55:57;2.90;;;0.63;;
23676;SDS011;31493;49.058;12.190;2023-09-30T08:58:26;1.05;;;0.95;;
23676;SDS011;31493;49.058;12.190;2023-09-30T09:00:54;0.60;;;0.50;;
23676;SDS011;31493;49.058;12.190;2023-09-30T09:03:22;0.50;;;0.40;;
23676;SDS011;31493;49.058;12.190;2023-09-30T09:05:54;1.70;;;0.43;;
23676;SDS011;31493;49.058;12.190;2023-09-30T09:08:22;1.63;;;0.70;;
23676;SDS011;31493;49.058;12.190;2023-09-30T09:10:53;4.80;;;0.93;;
23676;SDS011;31493;49.058;12.190;2023-09-30T09:13:21;0.60;;;0.47;;
23676;SDS011;31493;49.058;12.190;2023-09-30T09:15:49;1.35;;;0.50;;
23676;SDS011;31493;49.058;12.190;2023-09-30T09:18:30;0.90;;;0.50;;
23676;SDS011;31493;49.058;12.190;2023-09-30T09:21:09;1.10;;;0.45;;
23676;SDS011;31493;49.058;12.190;2023-09-30T09:26:08;1.25;;;0.30;;
23676;SDS011;31493;49.058;12.190;2023-09-30T09:28:36;4.40;;;0.60;;
23676;SDS011;31493;49.058;12.190;2023-09-30T09:31:18;4.80;;;0.40;;
23676;SDS011;31493;49.058;12.190;2023-09-30T09:33:47;1.40;;;0.38;;
23676;SDS011;31493;49.058;12.190;2023-09-30T09:36:17;1.48;;;0.32;;
23676;SDS011;31493;49.058;12.190;2023-09-30T09:38:45;0.60;;;0.28;;
23676;SDS011;31493;49.058;12.190;2023-09-30T09:41:14;0.38;;;0.20;;
23676;SDS011;31493;49.058;12.190;2023-09-30T09:43:42;1.15;;;0.70;;
23676;SDS011;31493;49.058;12.190;2023-09-30T09:46:09;0.30;;;0.30;;
23676;SDS011;31493;49.058;12.190;2023-09-30T09:48:38;0.35;;;0.30;;
23676;SDS011;31493;49.058;12.190;2023-09-30T09:51:05;1.25;;;0.40;;
23676;SDS011;31493;49.058;12.190;2023-09-30T09:53:35;0.70;;;0.40;;
23676;SDS011;31493;49.058;12.190;2023-09-30T09:56:03;0.40;;;0.40;;
23676;SDS011;31493;49.058;12.190;2023-09-30T09:58:32;2.28;;;0.32;;
23676;SDS011;31493;49.058;12.190;2023-09-30T10:01:00;0.35;;;0.30;;
23676;SDS011;31493;49.058;12.190;2023-09-30T10:03:28;0.65;;;0.35;;
23676;SDS011;31493;49.058;12.190;2023-09-30T10:05:56;1.65;;;0.50;;
23676;SDS011;31493;49.058;12.190;2023-09-30T10:08:28;0.20;;;0.20;;
23676;SDS011;31493;49.058;12.190;2023-09-30T10:10:59;0.95;;;0.30;;
23676;SDS011;31493;49.058;12.190;2023-09-30T10:13:49;0.28;;;0.15;;
23676;SDS011;31493;49.058;12.190;2023-09-30T10:19:17;0.38;;;0.28;;
23676;SDS011;31493;49.058;12.190;2023-09-30T10:24:52;2.50;;;0.50;;
23676;SDS011;31493;49.058;12.190;2023-09-30T10:27:31;0.73;;;0.40;;
23676;SDS011;31493;49.058;12.190;2023-09-30T10:30:06;1.77;;;0.60;;
23676;SDS011;31493;49.058;12.190;2023-09-30T10:35:47;1.15;;;0.60;;
23676;SDS011;31493;49.058;12.190;2023-09-30T10:41:07;1.40;;;0.70;;
23676;SDS011;31493;49.058;12.190;2023-09-30T10:43:37;1.27;;;0.70;;
23676;SDS011;31493;49.058;12.190;2023-09-30T10:49:02;0.82;;;0.60;;
23676;SDS011;31493;49.058;12.190;2023-09-30T10:51:43;1.13;;;0.60;;
23676;SDS011;31493;49.058;12.190;2023-09-30T10:54:11;1.30;;;1.00;;
23676;SDS011;31493;49.058;12.190;2023-09-30T10:56:39;1.88;;;0.80;;
23676;SDS011;31493;49.058;12.190;2023-09-30T10:59:08;1.20;;;0.80;;
23676;SDS011;31493;49.058;12.190;2023-09-30T11:01:35;1.27;;;0.85;;
23676;SDS011;31493;49.058;12.190;2023-09-30T11:04:03;1.50;;;0.90;;
23676;SDS011;31493;49.058;12.190;2023-09-30T11:06:32;2.13;;;1.40;;
23676;SDS011;31493;49.058;12.190;2023-09-30T11:09:01;3.53;;;1.35;;
23676;SDS011;31493;49.058;12.190;2023-09-30T11:11:33;2.78;;;1.70;;
23676;SDS011;31493;49.058;12.190;2023-09-30T11:14:01;6.18;;;1.42;;
23676;SDS011;31493;49.058;12.190;2023-09-30T11:16:29;3.03;;;1.52;;
23676;SDS011;31493;49.058;12.190;2023-09-30T11:18:56;3.40;;;1.48;;
23676;SDS011;31493;49.058;12.190;2023-09-30T11:21:23;2.25;;;1.42;;
23676;SDS011;31493;49.058;12.190;2023-09-30T11:23:50;2.55;;;1.50;;
23676;SDS011;31493;49.058;12.190;2023-09-30T11:26:22;3.30;;;1.83;;
23676;SDS011;31493;49.058;12.190;2023-09-30T11:29:04;3.97;;;1.90;;
23676;SDS011;31493;49.058;12.190;2023-09-30T11:31:33;3.55;;;2.25;;
23676;SDS011;31493;49.058;12.190;2023-09-30T11:36:29;5.32;;;2.70;;
23676;SDS011;31493;49.058;12.190;2023-09-30T11:38:57;6.78;;;2.20;;
23676;SDS011;31493;49.058;12.190;2023-09-30T11:41:32;3.83;;;2.10;;
23676;SDS011;31493;49.058;12.190;2023-09-30T11:44:00;4.28;;;2.47;;
23676;SDS011;31493;49.058;12.190;2023-09-30T11:46:30;5.00;;;2.67;;
23676;SDS011;31493;49.058;12.190;2023-09-30T11:49:01;5.05;;;2.50;;
23676;SDS011;31493;49.058;12.190;2023-09-30T11:51:30;7.72;;;2.60;;
23676;SDS011;31493;49.058;12.190;2023-09-30T11:54:10;5.70;;;2.47;;
23676;SDS011;31493;49.058;12.190;2023-09-30T11:56:37;4.10;;;2.55;;
23676;SDS011;31493;49.058;12.190;2023-09-30T11:59:04;5.10;;;2.65;;
23676;SDS011;31493;49.058;12.190;2023-09-30T12:01:31;5.35;;;2.50;;
23676;SDS011;31493;49.058;12.190;2023-09-30T12:04:00;5.43;;;2.22;;
23676;SDS011;31493;49.058;12.190;2023-09-30T12:06:27;4.90;;;2.42;;
23676;SDS011;31493;49.058;12.190;2023-09-30T12:08:59;7.75;;;3.30;;
23676;SDS011;31493;49.058;12.190;2023-09-30T12:11:28;5.82;;;2.92;;
23676;SDS011;31493;49.058;12.190;2023-09-30T12:13:55;5.55;;;2.88;;
23676;SDS011;31493;49.058;12.190;2023-09-30T12:16:22;4.10;;;2.40;;
23676;SDS011;31493;49.058;12.190;2023-09-30T12:18:49;6.85;;;2.97;;
23676;SDS011;31493;49.058;12.190;2023-09-30T12:21:18;5.30;;;2.70;;
23676;SDS011;31493;49.058;12.190;2023-09-30T12:23:45;5.43;;;2.80;;
23676;SDS011;31493;49.058;12.190;2023-09-30T12:26:14;5.32;;;2.80;;
23676;SDS011;31493;49.058;12.190;2023-09-30T12:28:43;4.68;;;2.72;;
23676;SDS011;31493;49.058;12.190;2023-09-30T12:31:10;7.80;;;3.10;;
23676;SDS011;31493;49.058;12.190;2023-09-30T12:36:06;6.72;;;3.05;;
23676;SDS011;31493;49.058;12.190;2023-09-30T12:38:34;6.20;;;3.10;;
23676;SDS011;31493;49.058;12.190;2023-09-30T12:41:01;5.78;;;3.00;;
23676;SDS011;31493;49.058;12.190;2023-09-30T12:43:29;7.05;;;2.95;;
23676;SDS011;31493;49.058;12.190;2023-09-30T12:45:56;6.22;;;3.17;;
23676;SDS011;31493;49.058;12.190;2023-09-30T12:48:23;4.47;;;2.78;;
23676;SDS011;31493;49.058;12.190;2023-09-30T12:50:50;10.07;;;3.33;;
23676;SDS011;31493;49.058;12.190;2023-09-30T12:53:18;5.55;;;2.97;;
23676;SDS011;31493;49.058;12.190;2023-09-30T12:55:46;5.45;;;2.85;;
23676;SDS011;31493;49.058;12.190;2023-09-30T12:58:13;5.55;;;2.70;;
23676;SDS011;31493;49.058;12.190;2023-09-30T13:00:40;7.63;;;3.42;;
23676;SDS011;31493;49.058;12.190;2023-09-30T13:03:07;6.95;;;3.65;;
23676;SDS011;31493;49.058;12.190;2023-09-30T13:05:35;9.35;;;3.78;;
23676;SDS011;31493;49.058;12.190;2023-09-30T13:08:02;10.50;;;3.70;;
23676;SDS011;31493;49.058;12.190;2023-09-30T13:10:29;8.23;;;3.33;;
23676;SDS011;31493;49.058;12.190;2023-09-30T13:12:58;6.18;;;3.63;;
23676;SDS011;31493;49.058;12.190;2023-09-30T13:15:25;7.88;;;4.00;;
23676;SDS011;31493;49.058;12.190;2023-09-30T13:17:52;8.63;;;3.78;;
23676;SDS011;31493;49.058;12.190;2023-09-30T13:20:19;7.90;;;3.83;;
23676;SDS011;31493;49.058;12.190;2023-09-30T13:22:46;9.70;;;3.90;;
23676;SDS011;31493;49.058;12.190;2023-09-30T13:25:14;8.02;;;3.60;;
23676;SDS011;31493;49.058;12.190;2023-09-30T13:27:42;7.88;;;3.85;;
23676;SDS011;31493;49.058;12.190;2023-09-30T13:30:11;6.70;;;3.85;;
23676;SDS011;31493;49.058;12.190;2023-09-30T13:32:39;8.93;;;3.97;;
23676;SDS011;31493;49.058;12.190;2023-09-30T13:35:06;9.70;;;4.25;;
23676;SDS011;31493;49.058;12.190;2023-09-30T13:37:33;11.73;;;4.20;;
23676;SDS011;31493;49.058;12.190;2023-09-30T13:40:02;14.48;;;4.57;;
23676;SDS011;31493;49.058;12.190;2023-09-30T13:42:33;8.80;;;4.28;;
23676;SDS011;31493;49.058;12.190;2023-09-30T13:45:00;10.73;;;3.75;;
23676;SDS011;31493;49.058;12.190;2023-09-30T13:47:30;12.50;;;4.13;;
23676;SDS011;31493;49.058;12.190;2023-09-30T13:49:57;9.48;;;3.95;;
23676;SDS011;31493;49.058;12.190;2023-09-30T13:52:24;7.30;;;3.90;;
23676;SDS011;31493;49.058;12.190;2023-09-30T13:54:51;7.80;;;4.07;;
23676;SDS011;31493;49.058;12.190;2023-09-30T13:57:18;9.45;;;4.15;;
23676;SDS011;31493;49.058;12.190;2023-09-30T13:59:45;9.43;;;3.88;;
23676;SDS011;31493;49.058;12.190;2023-09-30T14:02:12;8.50;;;3.90;;
23676;SDS011;31493;49.058;12.190;2023-09-30T14:04:41;11.00;;;4.13;;
23676;SDS011;31493;49.058;12.190;2023-09-30T14:07:08;8.00;;;4.05;;
23676;SDS011;31493;49.058;12.190;2023-09-30T14:09:35;7.82;;;3.65;;
23676;SDS011;31493;49.058;12.190;2023-09-30T14:12:03;8.02;;;4.07;;
23676;SDS011;31493;49.058;12.190;2023-09-30T14:14:30;10.88;;;3.90;;
23676;SDS011;31493;49.058;12.190;2023-09-30T14:19:32;9.07;;;4.28;;
23676;SDS011;31493;49.058;12.190;2023-09-30T14:22:01;12.43;;;4.30;;
23676;SDS011;31493;49.058;12.190;2023-09-30T14:24:29;11.65;;;4.20;;
23676;SDS011;31493;49.058;12.190;2023-09-30T14:26:56;10.35;;;3.97;;
23676;SDS011;31493;49.058;12.190;2023-09-30T14:29:24;15.30;;;3.88;;
23676;SDS011;31493;49.058;12.190;2023-09-30T14:31:51;10.13;;;4.50;;
23676;SDS011;31493;49.058;12.190;2023-09-30T14:34:18;8.73;;;3.95;;
23676;SDS011;31493;49.058;12.190;2023-09-30T14:36:45;8.60;;;4.15;;
23676;SDS011;31493;49.058;12.190;2023-09-30T14:39:14;10.52;;;4.03;;
23676;SDS011;31493;49.058;12.190;2023-09-30T14:44:08;8.85;;;4.40;;
23676;SDS011;31493;49.058;12.190;2023-09-30T14:46:37;8.75;;;4.50;;
23676;SDS011;31493;49.058;12.190;2023-09-30T14:49:04;6.63;;;3.60;;
23676;SDS011;31493;49.058;12.190;2023-09-30T14:51:33;10.52;;;3.95;;
23676;SDS011;31493;49.058;12.190;2023-09-30T14:54:00;8.95;;;4.32;;
23676;SDS011;31493;49.058;12.190;2023-09-30T14:56:28;12.48;;;4.20;;
23676;SDS011;31493;49.058;12.190;2023-09-30T14:58:56;8.75;;;4.18;;
23676;SDS011;31493;49.058;12.190;2023-09-30T15:01:23;11.80;;;4.35;;
23676;SDS011;31493;49.058;12.190;2023-09-30T15:03:51;7.68;;;4.30;;
23676;SDS011;31493;49.058;12.190;2023-09-30T15:06:18;9.07;;;4.03;;
23676;SDS011;31493;49.058;12.190;2023-09-30T15:08:46;13.02;;;4.40;;